createdAt,value
2023-04-04T00:20:48.072Z,4.43
2023-04-04T00:27:11.412Z,4.78
2023-04-04T00:41:14.302Z,2.63
2023-04-04T00:44:15.609Z,4.70
2023-04-04T00:54:01.393Z,3.67
2023-04-04T01:00:39.195Z,4.65
2023-04-04T01:04:04.107Z,3.40
2023-04-04T01:10:35.166Z,3.00
2023-04-04T01:14:01.558Z,3.83
2023-04-04T01:24:10.773Z,3.42
2023-04-04T01:27:20.902Z,4.25
2023-04-04T01:30:23.255Z,5.18
2023-04-04T01:33:21.333Z,4.72
2023-04-04T01:36:11.163Z,3.38
2023-04-04T01:39:05.503Z,3.00
2023-04-04T01:41:49.393Z,3.33
2023-04-04T01:44:26.523Z,4.00
2023-04-04T01:47:00.682Z,3.22
2023-04-04T01:49:33.382Z,3.53
2023-04-04T01:52:12.544Z,2.75
2023-04-04T01:54:46.276Z,4.88
2023-04-04T01:59:50.676Z,2.80
2023-04-04T02:02:21.634Z,4.43
2023-04-04T02:04:56.968Z,2.35
2023-04-04T02:08:10.571Z,3.25
2023-04-04T02:10:57.037Z,4.03
2023-04-04T02:13:29.214Z,4.28
2023-04-04T02:16:05.158Z,4.03
2023-04-04T02:18:48.292Z,3.55
2023-04-04T02:21:30.064Z,3.77
2023-04-04T02:24:00.749Z,3.58
2023-04-04T02:26:37.124Z,3.70
2023-04-04T02:32:18.584Z,2.45
2023-04-04T02:34:50.520Z,6.18
2023-04-04T02:37:27.887Z,4.10
2023-04-04T02:39:58.115Z,4.07
2023-04-04T02:42:36.778Z,3.83
2023-04-04T02:45:17.344Z,4.43
2023-04-04T02:47:52.321Z,4.15
2023-04-04T02:50:26.085Z,4.18
2023-04-04T02:55:32.172Z,5.25
2023-04-04T02:58:14.039Z,3.10
2023-04-04T03:01:01.437Z,2.95
2023-04-04T03:03:32.715Z,3.13
2023-04-04T03:06:11.740Z,2.95
2023-04-04T03:08:48.540Z,2.72
2023-04-04T03:11:25.080Z,5.47
2023-04-04T03:14:02.966Z,4.25
2023-04-04T03:16:48.237Z,3.72
2023-04-04T03:19:30.889Z,3.13
2023-04-04T03:22:08.124Z,3.33
2023-04-04T03:24:50.860Z,4.53
2023-04-04T03:27:24.353Z,3.15
2023-04-04T03:30:08.645Z,3.42
2023-04-04T03:32:42.542Z,3.85
2023-04-04T03:35:12.079Z,3.38
2023-04-04T03:37:48.480Z,3.63
2023-04-04T03:40:28.021Z,4.43
2023-04-04T03:43:04.476Z,3.28
2023-04-04T03:45:39.199Z,3.83
2023-04-04T03:48:13.628Z,3.20
2023-04-04T03:50:44.990Z,3.47
2023-04-04T03:53:17.056Z,3.90
2023-04-04T03:56:06.485Z,6.63
2023-04-04T03:58:39.561Z,5.13
2023-04-04T04:01:10.203Z,5.47
2023-04-04T04:03:45.688Z,5.03
2023-04-04T04:06:17.524Z,7.90
2023-04-04T04:08:48.093Z,4.15
2023-04-04T04:11:20.190Z,5.47
2023-04-04T04:14:03.671Z,3.15
2023-04-04T04:16:34.662Z,4.70
2023-04-04T04:19:14.799Z,4.28
2023-04-04T04:21:55.356Z,6.25
2023-04-04T04:24:32.741Z,5.03
2023-04-04T04:27:17.156Z,6.07
2023-04-04T04:30:02.006Z,4.32
2023-04-04T04:32:34.135Z,5.72
2023-04-04T04:35:13.219Z,5.40
2023-04-04T04:37:56.602Z,5.82
2023-04-04T04:40:50.241Z,5.72
2023-04-04T04:46:16.114Z,4.63
2023-04-04T04:51:48.087Z,5.93
2023-04-04T04:54:23.681Z,4.53
2023-04-04T04:56:58.851Z,3.45
2023-04-04T04:59:45.072Z,3.95
2023-04-04T05:02:19.898Z,5.22
2023-04-04T05:05:01.549Z,4.95
2023-04-04T05:07:46.272Z,5.88
2023-04-04T05:10:25.438Z,4.68
2023-04-04T05:13:04.194Z,5.75
2023-04-04T05:15:40.341Z,7.82
2023-04-04T05:18:29.355Z,5.70
2023-04-04T05:21:17.115Z,8.30
2023-04-04T05:23:48.855Z,8.45
2023-04-04T05:26:22.804Z,12.00
2023-04-04T05:31:31.456Z,6.85
2023-04-04T05:34:32.869Z,8.18
2023-04-04T05:37:15.341Z,7.07
2023-04-04T05:39:48.536Z,7.65
2023-04-04T05:42:28.017Z,6.97
2023-04-04T05:45:07.599Z,10.38
2023-04-04T05:47:41.230Z,8.38
2023-04-04T05:50:21.617Z,10.30
2023-04-04T05:52:50.797Z,9.88
2023-04-04T05:55:25.845Z,8.77
2023-04-04T05:57:57.770Z,8.00
2023-04-04T06:00:27.651Z,12.75
2023-04-04T06:02:59.752Z,19.88
2023-04-04T06:05:30.424Z,12.35
2023-04-04T06:08:14.124Z,10.90
2023-04-04T06:10:47.382Z,6.45
2023-04-04T06:13:18.778Z,10.85
2023-04-04T06:15:55.821Z,8.20
2023-04-04T06:18:27.079Z,13.25
2023-04-04T06:20:59.800Z,9.07
2023-04-04T06:23:31.983Z,10.07
2023-04-04T06:26:00.771Z,10.45
2023-04-04T06:28:31.432Z,9.25
2023-04-04T06:31:02.854Z,8.45
2023-04-04T06:33:33.833Z,8.88
2023-04-04T06:36:07.371Z,7.20
2023-04-04T06:38:37.866Z,7.68
2023-04-04T06:41:14.545Z,10.05
2023-04-04T06:43:50.729Z,7.55
2023-04-04T06:46:30.424Z,5.78
2023-04-04T06:49:08.993Z,10.00
2023-04-04T06:51:46.838Z,9.48
2023-04-04T06:54:29.866Z,6.70
2023-04-04T06:57:00.529Z,6.28
2023-04-04T06:59:34.677Z,6.85
2023-04-04T07:02:09.851Z,8.07
2023-04-04T07:05:00.357Z,6.47
2023-04-04T07:07:59.323Z,5.18
2023-04-04T07:11:00.616Z,4.70
2023-04-04T07:13:49.291Z,5.65
2023-04-04T07:16:29.726Z,7.00
2023-04-04T07:19:05.567Z,6.95
2023-04-04T07:21:46.277Z,3.33
2023-04-04T07:24:20.051Z,3.13
2023-04-04T07:29:36.209Z,4.72
2023-04-04T07:32:08.503Z,6.10
2023-04-04T07:34:40.612Z,3.30
2023-04-04T07:37:29.084Z,3.83
2023-04-04T07:40:00.549Z,4.22
2023-04-04T07:42:52.280Z,3.83
2023-04-04T07:45:44.825Z,4.20
2023-04-04T07:51:38.660Z,5.45
2023-04-04T07:54:34.697Z,4.47
2023-04-04T07:57:19.399Z,5.00
2023-04-04T07:59:55.313Z,4.65
2023-04-04T08:02:31.721Z,4.05
2023-04-04T08:05:12.399Z,4.45
2023-04-04T08:11:00.183Z,6.00
2023-04-04T08:14:10.007Z,5.53
2023-04-04T08:17:01.695Z,3.83
2023-04-04T08:24:06.667Z,5.38
2023-04-04T08:30:31.483Z,5.35
2023-04-04T08:45:42.667Z,4.22
2023-04-04T12:22:11.328Z,6.20
2023-04-04T12:25:09.566Z,4.15
2023-04-04T12:28:08.547Z,6.18
2023-04-04T12:34:27.410Z,4.47
2023-04-04T12:47:07.022Z,5.93
2023-04-04T12:50:29.495Z,5.55
2023-04-04T12:58:37.852Z,5.80
2023-04-04T13:00:54.522Z,6.53
2023-04-04T13:07:41.271Z,6.55
2023-04-04T13:11:06.445Z,5.97
2023-04-04T13:28:06.602Z,5.38
2023-04-04T13:35:04.618Z,7.28
2023-04-04T13:48:09.206Z,3.65
2023-04-04T13:51:01.242Z,4.78
2023-04-04T14:00:50.191Z,3.88
2023-04-04T14:51:16.166Z,4.03
2023-04-04T14:53:57.225Z,5.38
2023-04-04T14:56:36.782Z,4.38
2023-04-04T14:59:20.839Z,4.97
2023-04-04T15:05:21.046Z,4.38
2023-04-04T15:07:50.332Z,4.28
2023-04-04T15:10:19.276Z,3.80
2023-04-04T15:13:06.484Z,4.80
2023-04-04T15:15:50.592Z,4.82
2023-04-04T15:21:55.115Z,6.40
2023-04-04T15:25:02.667Z,5.22
2023-04-04T15:42:06.000Z,4.35
2023-04-04T17:07:18.758Z,4.57
2023-04-04T17:43:50.713Z,32.55
2023-04-04T17:47:05.232Z,8.13
2023-04-04T17:56:54.788Z,6.38
2023-04-04T17:59:33.844Z,6.20
2023-04-04T18:02:25.700Z,7.15
2023-04-04T18:09:14.052Z,14.98
2023-04-04T19:22:44.540Z,16.90
2023-04-04T19:40:03.732Z,12.85
2023-04-04T20:55:59.438Z,8.98
2023-04-04T20:58:48.786Z,8.68
2023-04-04T21:05:04.048Z,7.57
2023-04-04T21:07:57.847Z,10.80
2023-04-04T21:10:47.443Z,6.72
2023-04-04T21:13:22.574Z,10.07
2023-04-04T21:15:56.446Z,9.23
2023-04-04T21:21:30.850Z,7.57
2023-04-04T21:24:04.014Z,9.77
2023-04-04T21:26:41.997Z,10.45
2023-04-04T21:29:26.500Z,9.50
2023-04-04T21:32:01.586Z,10.77
2023-04-04T21:34:30.580Z,10.77
2023-04-04T21:37:03.815Z,7.93
2023-04-04T21:39:55.155Z,6.10
2023-04-04T21:45:41.228Z,9.43
2023-04-04T21:48:19.130Z,9.32
2023-04-04T21:50:50.042Z,10.93
2023-04-04T21:53:25.358Z,11.00
2023-04-04T21:56:13.488Z,10.15
2023-04-04T21:58:54.285Z,9.65
2023-04-04T22:01:25.999Z,10.32
2023-04-04T22:03:59.557Z,9.57
2023-04-04T22:06:28.355Z,10.02
2023-04-04T22:09:08.258Z,10.90
2023-04-04T22:11:44.794Z,9.25
2023-04-04T22:14:34.300Z,11.80
2023-04-04T22:17:09.325Z,9.23
2023-04-04T22:19:43.929Z,13.25
2023-04-04T22:22:20.197Z,11.52
2023-04-04T22:24:52.217Z,10.10
2023-04-04T22:27:33.734Z,10.00
2023-04-04T22:30:15.080Z,10.98
2023-04-04T22:33:07.286Z,8.18
2023-04-04T22:35:41.662Z,10.10
2023-04-04T22:38:18.341Z,9.63
2023-04-04T22:40:49.925Z,8.70
2023-04-04T22:43:23.716Z,11.32
2023-04-04T22:48:26.571Z,12.02
2023-04-04T22:51:00.829Z,9.18
2023-04-04T22:53:36.404Z,9.73
2023-04-04T22:56:06.536Z,8.35
2023-04-04T22:58:38.374Z,9.38
2023-04-04T23:01:08.753Z,8.48
2023-04-04T23:03:49.331Z,12.38
2023-04-04T23:06:20.286Z,13.50
2023-04-04T23:08:52.475Z,8.77
2023-04-04T23:11:27.956Z,9.43
2023-04-04T23:14:52.915Z,8.68
2023-04-04T23:17:27.488Z,10.50
2023-04-04T23:19:56.418Z,10.73
2023-04-04T23:22:32.341Z,9.50
2023-04-04T23:25:11.520Z,10.20
2023-04-04T23:28:05.373Z,11.18
2023-04-04T23:30:46.827Z,10.65
2023-04-04T23:33:20.066Z,9.38
2023-04-04T23:36:02.204Z,7.63
2023-04-04T23:38:31.080Z,9.05
2023-04-04T23:41:03.886Z,10.25
2023-04-04T23:43:38.605Z,8.00
2023-04-04T23:46:17.787Z,8.70
2023-04-04T23:48:48.672Z,8.35
2023-04-04T23:51:17.971Z,9.75
2023-04-04T23:53:47.313Z,10.07
2023-04-04T23:56:19.982Z,9.35
